sensor_id;sensor_type;location;lat;lon;timestamp;temperature;humidity
2435;DHT22;1228;51.022;6.764;2023-06-24T00:01:23;18.00;99.90
2435;DHT22;1228;51.022;6.764;2023-06-24T00:03:49;18.10;99.90
2435;DHT22;1228;51.022;6.764;2023-06-24T00:06:18;18.10;99.90
2435;DHT22;1228;51.022;6.764;2023-06-24T00:08:48;18.00;99.90
2435;DHT22;1228;51.022;6.764;2023-06-24T00:11:14;18.00;99.90
2435;DHT22;1228;51.022;6.764;2023-06-24T00:13:41;18.00;99.90
2435;DHT22;1228;51.022;6.764;2023-06-24T00:16:07;18.00;99.90
2435;DHT22;1228;51.022;6.764;2023-06-24T00:18:34;18.00;99.90
2435;DHT22;1228;51.022;6.764;2023-06-24T00:21:00;17.90;99.90
2435;DHT22;1228;51.022;6.764;2023-06-24T00:23:30;17.90;99.90
2435;DHT22;1228;51.022;6.764;2023-06-24T00:26:02;17.90;99.90
2435;DHT22;1228;51.022;6.764;2023-06-24T00:28:27;17.80;99.90
2435;DHT22;1228;51.022;6.764;2023-06-24T00:30:53;17.80;99.90
2435;DHT22;1228;51.022;6.764;2023-06-24T00:33:19;17.80;99.90
2435;DHT22;1228;51.022;6.764;2023-06-24T00:35:47;17.70;99.90
2435;DHT22;1228;51.022;6.764;2023-06-24T00:38:13;17.70;99.90
2435;DHT22;1228;51.022;6.764;2023-06-24T00:40:39;17.60;99.90
2435;DHT22;1228;51.022;6.764;2023-06-24T00:43:05;17.60;99.90
2435;DHT22;1228;51.022;6.764;2023-06-24T00:45:31;17.50;99.90
2435;DHT22;1228;51.022;6.764;2023-06-24T00:48:00;17.50;99.90
2435;DHT22;1228;51.022;6.764;2023-06-24T00:50:26;17.50;99.90
2435;DHT22;1228;51.022;6.764;2023-06-24T00:52:52;17.50;99.90
2435;DHT22;1228;51.022;6.764;2023-06-24T00:55:18;17.50;99.90
2435;DHT22;1228;51.022;6.764;2023-06-24T00:57:47;17.50;99.90
2435;DHT22;1228;51.022;6.764;2023-06-24T01:00:17;17.50;99.90
2435;DHT22;1228;51.022;6.764;2023-06-24T01:02:44;17.50;99.90
2435;DHT22;1228;51.022;6.764;2023-06-24T01:05:12;17.50;99.90
2435;DHT22;1228;51.022;6.764;2023-06-24T01:07:38;17.50;99.90
2435;DHT22;1228;51.022;6.764;2023-06-24T01:10:05;17.40;99.90
2435;DHT22;1228;51.022;6.764;2023-06-24T01:12:37;17.40;99.90
2435;DHT22;1228;51.022;6.764;2023-06-24T01:15:10;17.40;99.90
2435;DHT22;1228;51.022;6.764;2023-06-24T01:35:07;17.20;99.90
2435;DHT22;1228;51.022;6.764;2023-06-24T01:37:42;17.20;99.90
2435;DHT22;1228;51.022;6.764;2023-06-24T01:40:22;17.20;99.90
2435;DHT22;1228;51.022;6.764;2023-06-24T01:42:50;17.20;99.90
2435;DHT22;1228;51.022;6.764;2023-06-24T01:45:19;17.20;99.90
2435;DHT22;1228;51.022;6.764;2023-06-24T01:47:47;17.20;99.90
2435;DHT22;1228;51.022;6.764;2023-06-24T01:50:16;17.20;99.90
2435;DHT22;1228;51.022;6.764;2023-06-24T01:52:45;17.20;99.90
2435;DHT22;1228;51.022;6.764;2023-06-24T01:55:15;17.20;99.90
2435;DHT22;1228;51.022;6.764;2023-06-24T01:57:44;17.10;99.90
2435;DHT22;1228;51.022;6.764;2023-06-24T02:00:12;17.10;99.90
2435;DHT22;1228;51.022;6.764;2023-06-24T02:02:38;17.10;99.90
2435;DHT22;1228;51.022;6.764;2023-06-24T02:05:05;17.10;99.90
2435;DHT22;1228;51.022;6.764;2023-06-24T02:07:32;17.00;99.90
2435;DHT22;1228;51.022;6.764;2023-06-24T02:09:59;17.00;99.90
2435;DHT22;1228;51.022;6.764;2023-06-24T02:12:26;17.00;99.90
2435;DHT22;1228;51.022;6.764;2023-06-24T02:14:54;17.00;99.90
2435;DHT22;1228;51.022;6.764;2023-06-24T02:17:22;17.00;99.90
2435;DHT22;1228;51.022;6.764;2023-06-24T02:19:50;17.00;99.90
2435;DHT22;1228;51.022;6.764;2023-06-24T02:22:16;16.90;99.90
2435;DHT22;1228;51.022;6.764;2023-06-24T02:24:43;16.90;99.90
2435;DHT22;1228;51.022;6.764;2023-06-24T02:27:10;17.00;99.90
2435;DHT22;1228;51.022;6.764;2023-06-24T02:29:37;16.90;99.90
2435;DHT22;1228;51.022;6.764;2023-06-24T02:32:05;16.80;99.90
2435;DHT22;1228;51.022;6.764;2023-06-24T02:34:30;16.80;99.90
2435;DHT22;1228;51.022;6.764;2023-06-24T02:36:56;16.70;99.90
2435;DHT22;1228;51.022;6.764;2023-06-24T02:39:22;16.70;99.90
2435;DHT22;1228;51.022;6.764;2023-06-24T02:41:48;16.70;99.90
2435;DHT22;1228;51.022;6.764;2023-06-24T02:44:15;16.70;99.90
2435;DHT22;1228;51.022;6.764;2023-06-24T02:46:42;16.70;99.90
2435;DHT22;1228;51.022;6.764;2023-06-24T02:49:09;16.70;99.90
2435;DHT22;1228;51.022;6.764;2023-06-24T02:51:38;16.70;99.90
2435;DHT22;1228;51.022;6.764;2023-06-24T02:54:04;16.70;99.90
2435;DHT22;1228;51.022;6.764;2023-06-24T02:56:30;16.60;99.90
2435;DHT22;1228;51.022;6.764;2023-06-24T02:58:56;16.60;99.90
2435;DHT22;1228;51.022;6.764;2023-06-24T03:01:22;16.70;99.90
2435;DHT22;1228;51.022;6.764;2023-06-24T03:03:53;16.60;99.90
2435;DHT22;1228;51.022;6.764;2023-06-24T03:06:20;16.60;99.90
2435;DHT22;1228;51.022;6.764;2023-06-24T03:08:48;16.60;99.90
2435;DHT22;1228;51.022;6.764;2023-06-24T03:11:13;16.60;99.90
2435;DHT22;1228;51.022;6.764;2023-06-24T03:13:40;16.50;99.90
2435;DHT22;1228;51.022;6.764;2023-06-24T03:16:05;16.50;99.90
2435;DHT22;1228;51.022;6.764;2023-06-24T03:18:31;16.50;99.90
2435;DHT22;1228;51.022;6.764;2023-06-24T03:20:57;16.60;99.90
2435;DHT22;1228;51.022;6.764;2023-06-24T03:23:22;16.50;99.90
2435;DHT22;1228;51.022;6.764;2023-06-24T03:25:48;16.50;99.90
2435;DHT22;1228;51.022;6.764;2023-06-24T03:28:13;16.50;99.90
2435;DHT22;1228;51.022;6.764;2023-06-24T03:30:39;16.50;99.90
2435;DHT22;1228;51.022;6.764;2023-06-24T03:33:05;16.60;99.90
2435;DHT22;1228;51.022;6.764;2023-06-24T03:35:31;16.60;99.90
2435;DHT22;1228;51.022;6.764;2023-06-24T03:37:58;16.60;99.90
2435;DHT22;1228;51.022;6.764;2023-06-24T03:40:23;16.50;99.90
2435;DHT22;1228;51.022;6.764;2023-06-24T03:42:49;16.50;99.90
2435;DHT22;1228;51.022;6.764;2023-06-24T03:45:15;16.50;99.90
2435;DHT22;1228;51.022;6.764;2023-06-24T03:47:40;16.50;99.90
2435;DHT22;1228;51.022;6.764;2023-06-24T03:50:06;16.60;99.90
2435;DHT22;1228;51.022;6.764;2023-06-24T03:52:32;16.60;99.90
2435;DHT22;1228;51.022;6.764;2023-06-24T03:54:57;16.60;99.90
2435;DHT22;1228;51.022;6.764;2023-06-24T03:57:23;16.60;99.90
2435;DHT22;1228;51.022;6.764;2023-06-24T03:59:49;16.70;99.90
2435;DHT22;1228;51.022;6.764;2023-06-24T04:02:14;16.70;99.90
2435;DHT22;1228;51.022;6.764;2023-06-24T04:04:40;16.80;99.90
2435;DHT22;1228;51.022;6.764;2023-06-24T04:07:06;16.80;99.90
2435;DHT22;1228;51.022;6.764;2023-06-24T04:09:33;16.80;99.90
2435;DHT22;1228;51.022;6.764;2023-06-24T04:11:59;16.90;99.90
2435;DHT22;1228;51.022;6.764;2023-06-24T04:14:25;16.90;99.90
2435;DHT22;1228;51.022;6.764;2023-06-24T04:16:50;16.90;99.90
2435;DHT22;1228;51.022;6.764;2023-06-24T04:19:16;17.00;99.90
2435;DHT22;1228;51.022;6.764;2023-06-24T04:21:42;17.10;99.90
2435;DHT22;1228;51.022;6.764;2023-06-24T04:24:07;17.10;99.90
2435;DHT22;1228;51.022;6.764;2023-06-24T04:26:33;17.20;99.90
2435;DHT22;1228;51.022;6.764;2023-06-24T04:28:58;17.30;99.90
2435;DHT22;1228;51.022;6.764;2023-06-24T04:31:24;17.30;99.90
2435;DHT22;1228;51.022;6.764;2023-06-24T04:33:51;17.40;99.90
2435;DHT22;1228;51.022;6.764;2023-06-24T04:36:16;17.50;99.90
2435;DHT22;1228;51.022;6.764;2023-06-24T04:38:42;17.60;99.90
2435;DHT22;1228;51.022;6.764;2023-06-24T04:41:07;17.80;99.90
2435;DHT22;1228;51.022;6.764;2023-06-24T04:43:33;18.00;99.90
2435;DHT22;1228;51.022;6.764;2023-06-24T04:46:01;18.10;99.90
2435;DHT22;1228;51.022;6.764;2023-06-24T04:48:27;18.30;99.90
2435;DHT22;1228;51.022;6.764;2023-06-24T04:50:52;18.50;99.90
2435;DHT22;1228;51.022;6.764;2023-06-24T04:53:20;18.60;99.90
2435;DHT22;1228;51.022;6.764;2023-06-24T04:55:46;18.60;99.90
2435;DHT22;1228;51.022;6.764;2023-06-24T04:58:11;18.80;99.90
2435;DHT22;1228;51.022;6.764;2023-06-24T05:00:37;19.00;99.90
2435;DHT22;1228;51.022;6.764;2023-06-24T05:03:02;19.20;99.90
2435;DHT22;1228;51.022;6.764;2023-06-24T05:05:28;19.50;99.90
2435;DHT22;1228;51.022;6.764;2023-06-24T05:07:54;19.70;99.90
2435;DHT22;1228;51.022;6.764;2023-06-24T05:10:19;20.00;99.90
2435;DHT22;1228;51.022;6.764;2023-06-24T05:12:45;20.30;99.90
2435;DHT22;1228;51.022;6.764;2023-06-24T05:15:10;20.50;99.90
2435;DHT22;1228;51.022;6.764;2023-06-24T05:17:36;20.80;99.90
2435;DHT22;1228;51.022;6.764;2023-06-24T05:20:02;21.10;99.90
2435;DHT22;1228;51.022;6.764;2023-06-24T05:22:28;21.30;99.90
2435;DHT22;1228;51.022;6.764;2023-06-24T05:24:54;21.60;99.90
2435;DHT22;1228;51.022;6.764;2023-06-24T05:27:20;21.70;99.90
2435;DHT22;1228;51.022;6.764;2023-06-24T05:29:45;21.90;99.90
2435;DHT22;1228;51.022;6.764;2023-06-24T05:32:11;22.10;99.90
2435;DHT22;1228;51.022;6.764;2023-06-24T05:34:37;22.20;99.90
2435;DHT22;1228;51.022;6.764;2023-06-24T05:37:03;22.30;99.90
2435;DHT22;1228;51.022;6.764;2023-06-24T05:39:28;22.40;99.90
2435;DHT22;1228;51.022;6.764;2023-06-24T05:41:54;22.60;99.90
2435;DHT22;1228;51.022;6.764;2023-06-24T05:44:20;22.80;99.90
2435;DHT22;1228;51.022;6.764;2023-06-24T05:46:46;23.00;99.90
2435;DHT22;1228;51.022;6.764;2023-06-24T05:49:11;23.30;99.90
2435;DHT22;1228;51.022;6.764;2023-06-24T05:51:37;23.60;99.90
2435;DHT22;1228;51.022;6.764;2023-06-24T05:54:03;24.00;99.90
2435;DHT22;1228;51.022;6.764;2023-06-24T05:56:29;24.20;99.90
2435;DHT22;1228;51.022;6.764;2023-06-24T05:58:55;24.40;99.90
2435;DHT22;1228;51.022;6.764;2023-06-24T06:01:20;24.70;99.90
2435;DHT22;1228;51.022;6.764;2023-06-24T06:03:46;25.00;99.90
2435;DHT22;1228;51.022;6.764;2023-06-24T06:06:12;25.10;99.90
2435;DHT22;1228;51.022;6.764;2023-06-24T06:08:37;25.10;99.90
2435;DHT22;1228;51.022;6.764;2023-06-24T06:11:03;24.80;99.90
2435;DHT22;1228;51.022;6.764;2023-06-24T06:13:29;24.60;99.90
2435;DHT22;1228;51.022;6.764;2023-06-24T06:15:55;24.60;99.90
2435;DHT22;1228;51.022;6.764;2023-06-24T06:18:21;24.70;99.90
2435;DHT22;1228;51.022;6.764;2023-06-24T06:20:46;24.80;99.90
2435;DHT22;1228;51.022;6.764;2023-06-24T06:23:12;24.90;99.90
2435;DHT22;1228;51.022;6.764;2023-06-24T06:25:38;25.10;99.90
2435;DHT22;1228;51.022;6.764;2023-06-24T06:28:04;25.20;99.90
2435;DHT22;1228;51.022;6.764;2023-06-24T06:30:30;25.20;99.90
2435;DHT22;1228;51.022;6.764;2023-06-24T06:32:55;25.40;99.90
2435;DHT22;1228;51.022;6.764;2023-06-24T06:35:21;25.10;99.90
2435;DHT22;1228;51.022;6.764;2023-06-24T06:37:46;25.00;99.90
2435;DHT22;1228;51.022;6.764;2023-06-24T06:40:18;24.60;99.90
2435;DHT22;1228;51.022;6.764;2023-06-24T06:42:43;24.40;99.90
2435;DHT22;1228;51.022;6.764;2023-06-24T06:45:09;24.40;99.90
2435;DHT22;1228;51.022;6.764;2023-06-24T06:47:35;24.50;99.90
2435;DHT22;1228;51.022;6.764;2023-06-24T06:50:00;25.10;99.90
2435;DHT22;1228;51.022;6.764;2023-06-24T06:52:26;25.70;99.90
2435;DHT22;1228;51.022;6.764;2023-06-24T06:54:53;26.10;99.90
2435;DHT22;1228;51.022;6.764;2023-06-24T06:57:19;26.50;99.90
2435;DHT22;1228;51.022;6.764;2023-06-24T06:59:44;26.60;99.90
2435;DHT22;1228;51.022;6.764;2023-06-24T07:02:10;26.60;99.90
2435;DHT22;1228;51.022;6.764;2023-06-24T07:04:35;26.90;99.90
2435;DHT22;1228;51.022;6.764;2023-06-24T07:07:01;26.90;99.90
2435;DHT22;1228;51.022;6.764;2023-06-24T07:09:27;26.90;99.90
2435;DHT22;1228;51.022;6.764;2023-06-24T07:11:53;27.20;99.90
2435;DHT22;1228;51.022;6.764;2023-06-24T07:14:19;27.60;99.90
2435;DHT22;1228;51.022;6.764;2023-06-24T07:16:44;27.60;99.90
2435;DHT22;1228;51.022;6.764;2023-06-24T07:19:10;27.60;99.90
2435;DHT22;1228;51.022;6.764;2023-06-24T07:21:35;27.80;99.90
2435;DHT22;1228;51.022;6.764;2023-06-24T07:24:01;28.20;99.90
2435;DHT22;1228;51.022;6.764;2023-06-24T07:26:27;28.30;99.90
2435;DHT22;1228;51.022;6.764;2023-06-24T07:28:56;28.40;99.90
2435;DHT22;1228;51.022;6.764;2023-06-24T07:31:23;28.50;99.90
2435;DHT22;1228;51.022;6.764;2023-06-24T07:33:49;28.70;99.90
2435;DHT22;1228;51.022;6.764;2023-06-24T07:36:14;29.00;99.90
2435;DHT22;1228;51.022;6.764;2023-06-24T07:38:40;29.50;99.90
2435;DHT22;1228;51.022;6.764;2023-06-24T07:41:06;29.70;99.90
2435;DHT22;1228;51.022;6.764;2023-06-24T07:43:31;30.30;99.90
2435;DHT22;1228;51.022;6.764;2023-06-24T07:45:57;30.80;99.90
2435;DHT22;1228;51.022;6.764;2023-06-24T07:48:22;30.90;99.90
2435;DHT22;1228;51.022;6.764;2023-06-24T07:50:48;30.80;99.90
2435;DHT22;1228;51.022;6.764;2023-06-24T07:53:14;30.80;99.90
2435;DHT22;1228;51.022;6.764;2023-06-24T07:55:40;31.00;99.90
2435;DHT22;1228;51.022;6.764;2023-06-24T07:58:05;31.30;99.90
2435;DHT22;1228;51.022;6.764;2023-06-24T08:00:31;31.50;99.90
2435;DHT22;1228;51.022;6.764;2023-06-24T08:02:59;31.40;99.90
2435;DHT22;1228;51.022;6.764;2023-06-24T08:05:25;30.90;99.90
2435;DHT22;1228;51.022;6.764;2023-06-24T08:07:52;30.80;99.90
2435;DHT22;1228;51.022;6.764;2023-06-24T08:10:18;31.10;99.90
2435;DHT22;1228;51.022;6.764;2023-06-24T08:12:43;31.40;99.90
2435;DHT22;1228;51.022;6.764;2023-06-24T08:15:09;31.20;99.90
2435;DHT22;1228;51.022;6.764;2023-06-24T08:17:35;30.90;99.90
2435;DHT22;1228;51.022;6.764;2023-06-24T08:20:02;31.00;99.90
2435;DHT22;1228;51.022;6.764;2023-06-24T08:22:28;31.40;99.90
2435;DHT22;1228;51.022;6.764;2023-06-24T08:24:54;31.40;99.90
2435;DHT22;1228;51.022;6.764;2023-06-24T08:27:19;31.40;99.90
2435;DHT22;1228;51.022;6.764;2023-06-24T08:29:45;31.10;99.90
2435;DHT22;1228;51.022;6.764;2023-06-24T08:32:11;31.00;99.90
2435;DHT22;1228;51.022;6.764;2023-06-24T08:34:36;31.10;99.90
2435;DHT22;1228;51.022;6.764;2023-06-24T08:37:02;31.20;99.90
2435;DHT22;1228;51.022;6.764;2023-06-24T08:39:28;31.30;99.90
2435;DHT22;1228;51.022;6.764;2023-06-24T08:41:53;31.40;99.90
2435;DHT22;1228;51.022;6.764;2023-06-24T08:44:19;31.40;99.90
2435;DHT22;1228;51.022;6.764;2023-06-24T08:46:45;31.90;99.90
2435;DHT22;1228;51.022;6.764;2023-06-24T08:49:28;31.90;99.90
2435;DHT22;1228;51.022;6.764;2023-06-24T08:52:08;31.60;99.90
2435;DHT22;1228;51.022;6.764;2023-06-24T08:54:38;31.80;99.90
2435;DHT22;1228;51.022;6.764;2023-06-24T08:57:05;32.00;99.90
2435;DHT22;1228;51.022;6.764;2023-06-24T08:59:36;32.30;99.90
2435;DHT22;1228;51.022;6.764;2023-06-24T09:02:03;32.20;99.90
2435;DHT22;1228;51.022;6.764;2023-06-24T09:04:28;32.50;99.90
2435;DHT22;1228;51.022;6.764;2023-06-24T09:06:54;32.60;99.90
2435;DHT22;1228;51.022;6.764;2023-06-24T09:09:21;32.60;99.90
2435;DHT22;1228;51.022;6.764;2023-06-24T09:11:56;32.40;99.90
2435;DHT22;1228;51.022;6.764;2023-06-24T09:14:24;32.50;99.90
2435;DHT22;1228;51.022;6.764;2023-06-24T09:16:53;32.80;99.90
2435;DHT22;1228;51.022;6.764;2023-06-24T09:19:25;33.40;99.90
2435;DHT22;1228;51.022;6.764;2023-06-24T09:22:07;33.80;99.90
2435;DHT22;1228;51.022;6.764;2023-06-24T09:24:34;34.30;99.90
2435;DHT22;1228;51.022;6.764;2023-06-24T09:27:00;34.30;99.90
2435;DHT22;1228;51.022;6.764;2023-06-24T09:29:35;33.80;99.90
2435;DHT22;1228;51.022;6.764;2023-06-24T09:32:05;34.00;99.90
2435;DHT22;1228;51.022;6.764;2023-06-24T09:34:31;34.40;99.90
2435;DHT22;1228;51.022;6.764;2023-06-24T09:36:58;35.00;99.90
2435;DHT22;1228;51.022;6.764;2023-06-24T09:39:25;35.00;99.90
2435;DHT22;1228;51.022;6.764;2023-06-24T09:42:01;34.90;99.90
2435;DHT22;1228;51.022;6.764;2023-06-24T09:44:28;34.50;99.90
2435;DHT22;1228;51.022;6.764;2023-06-24T09:46:55;34.40;99.90
2435;DHT22;1228;51.022;6.764;2023-06-24T09:49:23;34.30;99.90
2435;DHT22;1228;51.022;6.764;2023-06-24T09:51:53;34.30;99.90
2435;DHT22;1228;51.022;6.764;2023-06-24T09:54:21;34.50;99.90
2435;DHT22;1228;51.022;6.764;2023-06-24T09:56:48;34.70;99.90
2435;DHT22;1228;51.022;6.764;2023-06-24T09:59:15;34.50;99.90
2435;DHT22;1228;51.022;6.764;2023-06-24T10:01:44;34.10;99.90
2435;DHT22;1228;51.022;6.764;2023-06-24T10:04:18;33.40;98.90
2435;DHT22;1228;51.022;6.764;2023-06-24T10:06:45;33.20;99.90
2435;DHT22;1228;51.022;6.764;2023-06-24T10:09:11;33.40;99.90
2435;DHT22;1228;51.022;6.764;2023-06-24T10:11:39;33.70;99.90
2435;DHT22;1228;51.022;6.764;2023-06-24T10:14:05;33.70;99.90
2435;DHT22;1228;51.022;6.764;2023-06-24T10:16:31;33.60;99.50
2435;DHT22;1228;51.022;6.764;2023-06-24T10:19:01;33.70;99.20
2435;DHT22;1228;51.022;6.764;2023-06-24T10:21:52;33.50;96.00
2435;DHT22;1228;51.022;6.764;2023-06-24T10:26:54;32.60;96.50
2435;DHT22;1228;51.022;6.764;2023-06-24T10:29:34;32.80;97.50
2435;DHT22;1228;51.022;6.764;2023-06-24T10:34:34;33.40;97.60
2435;DHT22;1228;51.022;6.764;2023-06-24T10:37:30;33.50;94.30
2435;DHT22;1228;51.022;6.764;2023-06-24T10:39:57;33.30;95.90
2435;DHT22;1228;51.022;6.764;2023-06-24T10:42:30;33.40;93.60
2435;DHT22;1228;51.022;6.764;2023-06-24T10:47:39;33.10;98.40
2435;DHT22;1228;51.022;6.764;2023-06-24T10:50:06;33.30;96.50
2435;DHT22;1228;51.022;6.764;2023-06-24T10:52:38;32.80;97.60
2435;DHT22;1228;51.022;6.764;2023-06-24T10:55:04;32.90;98.30
2435;DHT22;1228;51.022;6.764;2023-06-24T10:57:30;33.10;98.00
2435;DHT22;1228;51.022;6.764;2023-06-24T10:59:56;33.50;97.00
2435;DHT22;1228;51.022;6.764;2023-06-24T11:02:24;34.00;99.10
2435;DHT22;1228;51.022;6.764;2023-06-24T11:04:55;34.00;98.50
2435;DHT22;1228;51.022;6.764;2023-06-24T11:07:29;34.00;98.10
2435;DHT22;1228;51.022;6.764;2023-06-24T11:12:31;34.00;95.20
2435;DHT22;1228;51.022;6.764;2023-06-24T11:15:01;33.90;97.90
2435;DHT22;1228;51.022;6.764;2023-06-24T11:17:27;33.80;96.80
2435;DHT22;1228;51.022;6.764;2023-06-24T11:19:54;33.70;94.90
2435;DHT22;1228;51.022;6.764;2023-06-24T11:22:20;33.20;95.60
2435;DHT22;1228;51.022;6.764;2023-06-24T11:24:45;32.80;98.10
2435;DHT22;1228;51.022;6.764;2023-06-24T11:27:11;32.70;95.50
2435;DHT22;1228;51.022;6.764;2023-06-24T11:29:36;32.80;96.10
2435;DHT22;1228;51.022;6.764;2023-06-24T11:32:03;32.70;94.80
2435;DHT22;1228;51.022;6.764;2023-06-24T11:34:29;32.70;97.20
2435;DHT22;1228;51.022;6.764;2023-06-24T11:36:55;32.90;96.30
2435;DHT22;1228;51.022;6.764;2023-06-24T11:39:25;32.90;96.30
2435;DHT22;1228;51.022;6.764;2023-06-24T11:41:51;33.00;96.20
2435;DHT22;1228;51.022;6.764;2023-06-24T11:44:21;33.30;97.50
2435;DHT22;1228;51.022;6.764;2023-06-24T11:46:47;33.60;95.80
2435;DHT22;1228;51.022;6.764;2023-06-24T11:49:13;33.50;97.50
2435;DHT22;1228;51.022;6.764;2023-06-24T11:51:46;33.10;97.00
2435;DHT22;1228;51.022;6.764;2023-06-24T11:54:17;32.60;96.30
2435;DHT22;1228;51.022;6.764;2023-06-24T11:56:44;32.30;96.40
2435;DHT22;1228;51.022;6.764;2023-06-24T11:59:23;32.50;96.50
2435;DHT22;1228;51.022;6.764;2023-06-24T12:01:58;33.30;99.20
2435;DHT22;1228;51.022;6.764;2023-06-24T12:04:28;34.00;98.00
2435;DHT22;1228;51.022;6.764;2023-06-24T12:06:54;34.70;97.10
2435;DHT22;1228;51.022;6.764;2023-06-24T12:09:20;35.10;94.80
2435;DHT22;1228;51.022;6.764;2023-06-24T12:11:45;34.70;94.80
2435;DHT22;1228;51.022;6.764;2023-06-24T12:14:11;34.60;94.70
2435;DHT22;1228;51.022;6.764;2023-06-24T12:16:38;34.80;95.60
2435;DHT22;1228;51.022;6.764;2023-06-24T12:19:04;34.90;96.30
2435;DHT22;1228;51.022;6.764;2023-06-24T12:21:30;34.50;93.30
2435;DHT22;1228;51.022;6.764;2023-06-24T12:23:55;33.80;93.80
2435;DHT22;1228;51.022;6.764;2023-06-24T12:26:21;33.40;94.30
2435;DHT22;1228;51.022;6.764;2023-06-24T12:28:46;33.10;94.80
2435;DHT22;1228;51.022;6.764;2023-06-24T12:31:12;33.00;97.30
2435;DHT22;1228;51.022;6.764;2023-06-24T12:33:37;33.50;96.30
2435;DHT22;1228;51.022;6.764;2023-06-24T12:36:03;33.70;97.20
2435;DHT22;1228;51.022;6.764;2023-06-24T12:38:29;34.10;95.70
2435;DHT22;1228;51.022;6.764;2023-06-24T12:40:55;34.60;94.30
2435;DHT22;1228;51.022;6.764;2023-06-24T12:43:21;34.90;94.30
2435;DHT22;1228;51.022;6.764;2023-06-24T12:45:46;34.80;91.40
2435;DHT22;1228;51.022;6.764;2023-06-24T12:48:13;34.10;91.70
2435;DHT22;1228;51.022;6.764;2023-06-24T12:50:38;33.80;94.10
2435;DHT22;1228;51.022;6.764;2023-06-24T12:53:04;33.70;92.10
2435;DHT22;1228;51.022;6.764;2023-06-24T12:55:30;33.80;94.10
2435;DHT22;1228;51.022;6.764;2023-06-24T12:57:56;34.30;93.10
2435;DHT22;1228;51.022;6.764;2023-06-24T13:00:24;34.80;91.90
2435;DHT22;1228;51.022;6.764;2023-06-24T13:02:50;34.90;91.10
2435;DHT22;1228;51.022;6.764;2023-06-24T13:05:17;34.60;89.30
2435;DHT22;1228;51.022;6.764;2023-06-24T13:07:42;34.30;92.20
2435;DHT22;1228;51.022;6.764;2023-06-24T13:10:09;34.20;93.60
2435;DHT22;1228;51.022;6.764;2023-06-24T13:12:35;34.20;90.50
2435;DHT22;1228;51.022;6.764;2023-06-24T13:15:02;34.30;90.60
2435;DHT22;1228;51.022;6.764;2023-06-24T13:17:29;34.60;90.70
2435;DHT22;1228;51.022;6.764;2023-06-24T13:19:55;34.90;92.30
2435;DHT22;1228;51.022;6.764;2023-06-24T13:22:21;35.00;89.50
2435;DHT22;1228;51.022;6.764;2023-06-24T13:24:47;35.20;89.80
2435;DHT22;1228;51.022;6.764;2023-06-24T13:27:13;35.00;86.50
2435;DHT22;1228;51.022;6.764;2023-06-24T13:29:38;34.20;84.20
2435;DHT22;1228;51.022;6.764;2023-06-24T13:32:04;33.80;86.60
2435;DHT22;1228;51.022;6.764;2023-06-24T13:34:29;33.50;90.70
2435;DHT22;1228;51.022;6.764;2023-06-24T13:36:56;33.60;89.30
2435;DHT22;1228;51.022;6.764;2023-06-24T13:39:21;33.40;84.10
2435;DHT22;1228;51.022;6.764;2023-06-24T13:41:50;33.40;81.70
2435;DHT22;1228;51.022;6.764;2023-06-24T13:44:17;33.40;82.70
2435;DHT22;1228;51.022;6.764;2023-06-24T13:46:42;33.30;80.50
2435;DHT22;1228;51.022;6.764;2023-06-24T13:49:08;33.30;78.80
2435;DHT22;1228;51.022;6.764;2023-06-24T13:51:34;33.40;81.60
2435;DHT22;1228;51.022;6.764;2023-06-24T13:54:00;33.60;79.90
2435;DHT22;1228;51.022;6.764;2023-06-24T13:56:26;33.80;79.80
2435;DHT22;1228;51.022;6.764;2023-06-24T13:58:53;34.10;80.30
2435;DHT22;1228;51.022;6.764;2023-06-24T14:01:19;34.20;78.10
2435;DHT22;1228;51.022;6.764;2023-06-24T14:03:45;34.30;75.60
2435;DHT22;1228;51.022;6.764;2023-06-24T14:06:12;34.60;77.80
2435;DHT22;1228;51.022;6.764;2023-06-24T14:08:38;34.70;73.90
2435;DHT22;1228;51.022;6.764;2023-06-24T14:11:03;34.70;74.40
2435;DHT22;1228;51.022;6.764;2023-06-24T14:13:29;34.40;76.70
2435;DHT22;1228;51.022;6.764;2023-06-24T14:15:55;34.50;70.10
2435;DHT22;1228;51.022;6.764;2023-06-24T14:18:21;34.60;77.60
2435;DHT22;1228;51.022;6.764;2023-06-24T14:20:47;34.70;70.10
2435;DHT22;1228;51.022;6.764;2023-06-24T14:23:13;34.80;72.20
2435;DHT22;1228;51.022;6.764;2023-06-24T14:25:39;34.80;68.50
2435;DHT22;1228;51.022;6.764;2023-06-24T14:28:05;34.80;70.80
2435;DHT22;1228;51.022;6.764;2023-06-24T14:30:30;34.90;71.70
2435;DHT22;1228;51.022;6.764;2023-06-24T14:32:56;34.80;76.70
2435;DHT22;1228;51.022;6.764;2023-06-24T14:35:21;34.50;71.00
2435;DHT22;1228;51.022;6.764;2023-06-24T14:37:47;34.50;78.30
2435;DHT22;1228;51.022;6.764;2023-06-24T14:40:13;34.50;73.60
2435;DHT22;1228;51.022;6.764;2023-06-24T14:42:38;35.00;75.70
2435;DHT22;1228;51.022;6.764;2023-06-24T14:45:04;35.60;75.30
2435;DHT22;1228;51.022;6.764;2023-06-24T14:47:30;35.60;68.40
2435;DHT22;1228;51.022;6.764;2023-06-24T14:49:56;35.20;64.60
2435;DHT22;1228;51.022;6.764;2023-06-24T14:52:22;35.00;70.50
2435;DHT22;1228;51.022;6.764;2023-06-24T14:54:48;34.90;73.20
2435;DHT22;1228;51.022;6.764;2023-06-24T14:57:13;35.00;70.70
2435;DHT22;1228;51.022;6.764;2023-06-24T14:59:41;35.10;77.90
2435;DHT22;1228;51.022;6.764;2023-06-24T15:02:07;35.00;68.50
2435;DHT22;1228;51.022;6.764;2023-06-24T15:04:32;34.50;68.70
2435;DHT22;1228;51.022;6.764;2023-06-24T15:06:59;34.20;67.40
2435;DHT22;1228;51.022;6.764;2023-06-24T15:09:25;34.00;68.00
2435;DHT22;1228;51.022;6.764;2023-06-24T15:11:51;34.20;71.10
2435;DHT22;1228;51.022;6.764;2023-06-24T15:14:16;34.20;69.30
2435;DHT22;1228;51.022;6.764;2023-06-24T15:16:42;34.40;68.90
2435;DHT22;1228;51.022;6.764;2023-06-24T15:19:08;34.60;72.00
2435;DHT22;1228;51.022;6.764;2023-06-24T15:21:33;34.60;76.90
2435;DHT22;1228;51.022;6.764;2023-06-24T15:23:59;34.40;67.40
2435;DHT22;1228;51.022;6.764;2023-06-24T15:26:24;34.30;63.10
2435;DHT22;1228;51.022;6.764;2023-06-24T15:28:50;34.00;68.80
2435;DHT22;1228;51.022;6.764;2023-06-24T15:31:15;33.90;62.90
2435;DHT22;1228;51.022;6.764;2023-06-24T15:33:41;33.70;63.00
2435;DHT22;1228;51.022;6.764;2023-06-24T15:36:07;33.70;65.00
2435;DHT22;1228;51.022;6.764;2023-06-24T15:38:33;33.80;63.00
2435;DHT22;1228;51.022;6.764;2023-06-24T15:40:59;33.80;61.90
2435;DHT22;1228;51.022;6.764;2023-06-24T15:43:24;34.00;67.20
2435;DHT22;1228;51.022;6.764;2023-06-24T15:45:50;34.40;61.30
2435;DHT22;1228;51.022;6.764;2023-06-24T15:48:16;34.60;59.00
2435;DHT22;1228;51.022;6.764;2023-06-24T15:50:41;34.70;65.20
2435;DHT22;1228;51.022;6.764;2023-06-24T15:53:07;34.80;60.50
2435;DHT22;1228;51.022;6.764;2023-06-24T15:55:33;34.80;56.50
2435;DHT22;1228;51.022;6.764;2023-06-24T15:57:58;34.50;58.10
2435;DHT22;1228;51.022;6.764;2023-06-24T16:00:24;34.60;57.40
2435;DHT22;1228;51.022;6.764;2023-06-24T16:02:50;34.80;58.50
2435;DHT22;1228;51.022;6.764;2023-06-24T16:05:15;34.90;54.40
2435;DHT22;1228;51.022;6.764;2023-06-24T16:07:41;34.80;58.10
2435;DHT22;1228;51.022;6.764;2023-06-24T16:10:07;34.90;57.70
2435;DHT22;1228;51.022;6.764;2023-06-24T16:12:33;34.90;59.70
2435;DHT22;1228;51.022;6.764;2023-06-24T16:14:58;35.00;58.40
2435;DHT22;1228;51.022;6.764;2023-06-24T16:17:24;34.90;61.90
2435;DHT22;1228;51.022;6.764;2023-06-24T16:19:49;35.10;56.50
2435;DHT22;1228;51.022;6.764;2023-06-24T16:22:15;35.00;56.70
2435;DHT22;1228;51.022;6.764;2023-06-24T16:24:41;35.50;61.20
2435;DHT22;1228;51.022;6.764;2023-06-24T16:27:06;35.80;53.10